AUA645L LOWW-LKPR
Flight info
| Callsign | AUA645L |
|---|---|
| Flight time | 0h 30m |
| Altitude | 20000 |
| Route | LANU2C LANUX DCT VLM VLM6R |
| Aircraft | A320/M-SDE3FGHIRWY/LB1 |
Departure
| Time | 2026-04-22 17:26 |
|---|---|
| Airport | Vienna International Airport (LOWW) |
Arrival
| Time | 2026-04-22 17:57 |
|---|---|
| Airport | Václav Havel Airport Prague (LKPR) |
| Time | Latitude | Longitude | Altitude | Speed | Heading |
|---|---|---|---|---|---|
| 2026-04-22 17:00 | 48.11842 | 16.56936 | 602 ft | 0 kts | 197° |
| 2026-04-22 17:17 | 48.11848 | 16.56938 | 601 ft | 4 kts | 197° |
| 2026-04-22 17:17 | 48.11873 | 16.56951 | 601 ft | 4 kts | 203° |
| 2026-04-22 17:17 | 48.11898 | 16.56962 | 600 ft | 4 kts | 174° |
| 2026-04-22 17:18 | 48.11918 | 16.56948 | 600 ft | 3 kts | 119° |
| 2026-04-22 17:18 | 48.11920 | 16.56944 | 600 ft | 0 kts | 116° |
| 2026-04-22 17:21 | 48.11901 | 16.57002 | 600 ft | 5 kts | 116° |
| 2026-04-22 17:22 | 48.11870 | 16.57097 | 601 ft | 6 kts | 116° |
| 2026-04-22 17:22 | 48.11855 | 16.57164 | 602 ft | 8 kts | 92° |
| 2026-04-22 17:22 | 48.11813 | 16.57331 | 603 ft | 9 kts | 129° |
| 2026-04-22 17:23 | 48.11747 | 16.57371 | 607 ft | 11 kts | 164° |
| 2026-04-22 17:23 | 48.11577 | 16.57443 | 613 ft | 14 kts | 164° |
| 2026-04-22 17:23 | 48.11488 | 16.57454 | 608 ft | 12 kts | 195° |
| 2026-04-22 17:24 | 48.11415 | 16.57404 | 613 ft | 12 kts | 206° |
| 2026-04-22 17:24 | 48.11331 | 16.57344 | 621 ft | 14 kts | 206° |
| 2026-04-22 17:24 | 48.11276 | 16.57304 | 623 ft | 12 kts | 206° |
| 2026-04-22 17:24 | 48.11192 | 16.57243 | 621 ft | 10 kts | 206° |
| 2026-04-22 17:25 | 48.11120 | 16.57191 | 629 ft | 14 kts | 206° |
| 2026-04-22 17:25 | 48.11058 | 16.57113 | 626 ft | 10 kts | 262° |
| 2026-04-22 17:25 | 48.11079 | 16.57029 | 628 ft | 10 kts | 295° |
| 2026-04-22 17:25 | 48.11178 | 16.56725 | 634 ft | 68 kts | 296° |
| 2026-04-22 17:26 | 48.11367 | 16.56148 | 620 ft | 113 kts | 296° |
| 2026-04-22 17:26 | 48.11786 | 16.54839 | 669 ft | 159 kts | 298° |
| 2026-04-22 17:26 | 48.12213 | 16.53300 | 1233 ft | 170 kts | 284° |
| 2026-04-22 17:26 | 48.12118 | 16.51470 | 1920 ft | 185 kts | 261° |
| 2026-04-22 17:27 | 48.11786 | 16.49453 | 2169 ft | 215 kts | 263° |
| 2026-04-22 17:27 | 48.11578 | 16.47124 | 2603 ft | 236 kts | 276° |
| 2026-04-22 17:27 | 48.11780 | 16.44594 | 3272 ft | 250 kts | 283° |
| 2026-04-22 17:27 | 48.12072 | 16.42004 | 4236 ft | 255 kts | 284° |
| 2026-04-22 17:28 | 48.12372 | 16.39362 | 5210 ft | 259 kts | 283° |
| 2026-04-22 17:28 | 48.12670 | 16.36689 | 6192 ft | 262 kts | 283° |
| 2026-04-22 17:28 | 48.12965 | 16.33983 | 7136 ft | 265 kts | 283° |
| 2026-04-22 17:28 | 48.13260 | 16.31231 | 8037 ft | 270 kts | 283° |
| 2026-04-22 17:29 | 48.13557 | 16.28439 | 8939 ft | 274 kts | 283° |
| 2026-04-22 17:29 | 48.13857 | 16.25594 | 9832 ft | 278 kts | 284° |
| 2026-04-22 17:29 | 48.14441 | 16.22836 | 10611 ft | 279 kts | 301° |
| 2026-04-22 17:29 | 48.15537 | 16.20447 | 11335 ft | 283 kts | 316° |
| 2026-04-22 17:30 | 48.17121 | 16.18571 | 11611 ft | 301 kts | 334° |
| 2026-04-22 17:30 | 48.19070 | 16.17140 | 11922 ft | 321 kts | 337° |
| 2026-04-22 17:30 | 48.21114 | 16.15662 | 12573 ft | 329 kts | 336° |
| 2026-04-22 17:30 | 48.23187 | 16.14146 | 13340 ft | 334 kts | 336° |
| 2026-04-22 17:31 | 48.25286 | 16.12594 | 14106 ft | 338 kts | 336° |
| 2026-04-22 17:31 | 48.27409 | 16.11015 | 14784 ft | 342 kts | 337° |
| 2026-04-22 17:31 | 48.29551 | 16.09422 | 15463 ft | 346 kts | 337° |
| 2026-04-22 17:31 | 48.31720 | 16.07813 | 16120 ft | 349 kts | 337° |
| 2026-04-22 17:32 | 48.33909 | 16.06187 | 16801 ft | 353 kts | 337° |
| 2026-04-22 17:32 | 48.36119 | 16.04545 | 17461 ft | 356 kts | 337° |
| 2026-04-22 17:32 | 48.38355 | 16.02885 | 18138 ft | 360 kts | 337° |
| 2026-04-22 17:32 | 48.40612 | 16.01203 | 18696 ft | 363 kts | 337° |
| 2026-04-22 17:33 | 48.42895 | 15.99493 | 19185 ft | 366 kts | 337° |
| 2026-04-22 17:33 | 48.45174 | 15.97786 | 19635 ft | 370 kts | 338° |
| 2026-04-22 17:33 | 48.47449 | 15.96081 | 19876 ft | 371 kts | 338° |
| 2026-04-22 17:33 | 48.49763 | 15.94343 | 20121 ft | 373 kts | 338° |
| 2026-04-22 17:34 | 48.52092 | 15.92592 | 20219 ft | 379 kts | 337° |
| 2026-04-22 17:34 | 48.54478 | 15.90801 | 20226 ft | 385 kts | 337° |
| 2026-04-22 17:34 | 48.56882 | 15.88994 | 20226 ft | 387 kts | 337° |
| 2026-04-22 17:34 | 48.59274 | 15.87106 | 20224 ft | 388 kts | 335° |
| 2026-04-22 17:35 | 48.61631 | 15.85125 | 20221 ft | 388 kts | 334° |
| 2026-04-22 17:35 | 48.63976 | 15.83089 | 20224 ft | 388 kts | 334° |
| 2026-04-22 17:35 | 48.66313 | 15.81031 | 20215 ft | 389 kts | 334° |
| 2026-04-22 17:35 | 48.68657 | 15.78970 | 20228 ft | 390 kts | 334° |
| 2026-04-22 17:36 | 48.71005 | 15.76922 | 20230 ft | 390 kts | 334° |
| 2026-04-22 17:36 | 48.73365 | 15.74885 | 20227 ft | 390 kts | 334° |
| 2026-04-22 17:36 | 48.75726 | 15.72857 | 20229 ft | 390 kts | 335° |
| 2026-04-22 17:36 | 48.78055 | 15.70860 | 20238 ft | 390 kts | 335° |
| 2026-04-22 17:37 | 48.80417 | 15.68832 | 20240 ft | 390 kts | 335° |
| 2026-04-22 17:37 | 48.82780 | 15.66801 | 20242 ft | 390 kts | 335° |
| 2026-04-22 17:37 | 48.85143 | 15.64767 | 20243 ft | 390 kts | 334° |
| 2026-04-22 17:37 | 48.87501 | 15.62731 | 20245 ft | 390 kts | 334° |
| 2026-04-22 17:38 | 48.89862 | 15.60691 | 20243 ft | 390 kts | 334° |
| 2026-04-22 17:38 | 48.92221 | 15.58647 | 20245 ft | 391 kts | 335° |
| 2026-04-22 17:38 | 48.94584 | 15.56597 | 20246 ft | 390 kts | 335° |
| 2026-04-22 17:38 | 48.96951 | 15.54546 | 20228 ft | 391 kts | 335° |
| 2026-04-22 17:39 | 48.99312 | 15.52500 | 20237 ft | 391 kts | 335° |
| 2026-04-22 17:39 | 49.01677 | 15.50450 | 20235 ft | 391 kts | 335° |
| 2026-04-22 17:39 | 49.06408 | 15.46338 | 20249 ft | 392 kts | 335° |
| 2026-04-22 17:40 | 49.08776 | 15.44279 | 20251 ft | 392 kts | 335° |
| 2026-04-22 17:40 | 49.11141 | 15.42218 | 20254 ft | 392 kts | 335° |
| 2026-04-22 17:40 | 49.13507 | 15.40149 | 20252 ft | 392 kts | 335° |
| 2026-04-22 17:40 | 49.15871 | 15.38078 | 20260 ft | 392 kts | 334° |
| 2026-04-22 17:41 | 49.18229 | 15.36004 | 20250 ft | 392 kts | 335° |
| 2026-04-22 17:41 | 49.20592 | 15.33926 | 20252 ft | 392 kts | 335° |
| 2026-04-22 17:41 | 49.22959 | 15.31851 | 20248 ft | 392 kts | 335° |
| 2026-04-22 17:41 | 49.25329 | 15.29774 | 20250 ft | 392 kts | 335° |
| 2026-04-22 17:42 | 49.27694 | 15.27696 | 20254 ft | 392 kts | 335° |
| 2026-04-22 17:42 | 49.30055 | 15.25620 | 20196 ft | 389 kts | 335° |
| 2026-04-22 17:42 | 49.32374 | 15.23577 | 19933 ft | 378 kts | 335° |
| 2026-04-22 17:42 | 49.34622 | 15.21591 | 19662 ft | 369 kts | 335° |
| 2026-04-22 17:43 | 49.36806 | 15.19662 | 19157 ft | 366 kts | 335° |
| 2026-04-22 17:43 | 49.39000 | 15.17726 | 18701 ft | 363 kts | 334° |
| 2026-04-22 17:43 | 49.41175 | 15.15806 | 18303 ft | 357 kts | 334° |
| 2026-04-22 17:43 | 49.43297 | 15.13921 | 18008 ft | 348 kts | 334° |
| 2026-04-22 17:44 | 49.45364 | 15.12080 | 17735 ft | 339 kts | 334° |
| 2026-04-22 17:44 | 49.47388 | 15.10278 | 17467 ft | 334 kts | 334° |
| 2026-04-22 17:44 | 49.49392 | 15.08499 | 17200 ft | 332 kts | 334° |
| 2026-04-22 17:44 | 49.51403 | 15.06719 | 16600 ft | 334 kts | 334° |
| 2026-04-22 17:45 | 49.53420 | 15.04932 | 16038 ft | 335 kts | 334° |
| 2026-04-22 17:45 | 49.55444 | 15.03130 | 15478 ft | 336 kts | 334° |
| 2026-04-22 17:45 | 49.57473 | 15.01321 | 14929 ft | 337 kts | 334° |
| 2026-04-22 17:45 | 49.59500 | 14.99513 | 14461 ft | 335 kts | 334° |
| 2026-04-22 17:46 | 49.61509 | 14.97717 | 13999 ft | 333 kts | 334° |
| 2026-04-22 17:46 | 49.63504 | 14.95933 | 13510 ft | 330 kts | 334° |
| 2026-04-22 17:46 | 49.65481 | 14.94164 | 13028 ft | 327 kts | 333° |
| 2026-04-22 17:46 | 49.67447 | 14.92403 | 12551 ft | 324 kts | 333° |
| 2026-04-22 17:47 | 49.69280 | 14.90759 | 12117 ft | 321 kts | 333° |
| 2026-04-22 17:47 | 49.71207 | 14.89030 | 11650 ft | 318 kts | 333° |
| 2026-04-22 17:47 | 49.73113 | 14.87315 | 11195 ft | 315 kts | 332° |
| 2026-04-22 17:47 | 49.74832 | 14.85292 | 10752 ft | 315 kts | 321° |
| 2026-04-22 17:48 | 49.75922 | 14.83772 | 10521 ft | 308 kts | 321° |
| 2026-04-22 17:48 | 49.77939 | 14.80945 | 10156 ft | 283 kts | 321° |
| 2026-04-22 17:48 | 49.79374 | 14.78931 | 9966 ft | 274 kts | 321° |
| 2026-04-22 17:48 | 49.80766 | 14.76975 | 9667 ft | 269 kts | 321° |
| 2026-04-22 17:49 | 49.82148 | 14.75032 | 9267 ft | 268 kts | 321° |
| 2026-04-22 17:49 | 49.83526 | 14.73091 | 8786 ft | 266 kts | 321° |
| 2026-04-22 17:49 | 49.84876 | 14.71182 | 8341 ft | 258 kts | 321° |
| 2026-04-22 17:49 | 49.86161 | 14.69358 | 8239 ft | 243 kts | 321° |
| 2026-04-22 17:50 | 49.87379 | 14.67627 | 8236 ft | 235 kts | 321° |
| 2026-04-22 17:50 | 49.88583 | 14.65919 | 8104 ft | 236 kts | 321° |
| 2026-04-22 17:50 | 49.89807 | 14.64185 | 7661 ft | 239 kts | 321° |
| 2026-04-22 17:50 | 49.91040 | 14.62435 | 7221 ft | 242 kts | 321° |
| 2026-04-22 17:51 | 49.92288 | 14.60667 | 6794 ft | 242 kts | 321° |
| 2026-04-22 17:51 | 49.93510 | 14.58933 | 6404 ft | 235 kts | 321° |
| 2026-04-22 17:51 | 49.94696 | 14.57258 | 6028 ft | 227 kts | 319° |
| 2026-04-22 17:51 | 49.95737 | 14.55474 | 5704 ft | 219 kts | 313° |
| 2026-04-22 17:52 | 49.96666 | 14.53625 | 5361 ft | 214 kts | 311° |
| 2026-04-22 17:52 | 49.97550 | 14.51812 | 5060 ft | 207 kts | 311° |
| 2026-04-22 17:52 | 49.98401 | 14.50067 | 4779 ft | 199 kts | 310° |
| 2026-04-22 17:52 | 49.99228 | 14.48373 | 4536 ft | 194 kts | 311° |
| 2026-04-22 17:53 | 50.00033 | 14.46721 | 4245 ft | 189 kts | 310° |
| 2026-04-22 17:53 | 50.00815 | 14.45116 | 3981 ft | 183 kts | 311° |
| 2026-04-22 17:53 | 50.01574 | 14.43557 | 3740 ft | 178 kts | 310° |
| 2026-04-22 17:53 | 50.02310 | 14.42046 | 3508 ft | 173 kts | 310° |
| 2026-04-22 17:54 | 50.03029 | 14.40570 | 3294 ft | 169 kts | 310° |
| 2026-04-22 17:54 | 50.03732 | 14.39124 | 3065 ft | 166 kts | 310° |
| 2026-04-22 17:54 | 50.04413 | 14.37720 | 2838 ft | 155 kts | 311° |
| 2026-04-22 17:54 | 50.05014 | 14.36481 | 2655 ft | 139 kts | 311° |
| 2026-04-22 17:55 | 50.05399 | 14.35687 | 2527 ft | 134 kts | 311° |
| 2026-04-22 17:55 | 50.06131 | 14.34179 | 2288 ft | 130 kts | 312° |
| 2026-04-22 17:55 | 50.06680 | 14.33061 | 2111 ft | 130 kts | 311° |
| 2026-04-22 17:55 | 50.07214 | 14.31931 | 1890 ft | 129 kts | 310° |
| 2026-04-22 17:56 | 50.07765 | 14.30826 | 1716 ft | 130 kts | 311° |
| 2026-04-22 17:56 | 50.08311 | 14.29700 | 1519 ft | 131 kts | 308° |
| 2026-04-22 17:56 | 50.08845 | 14.28566 | 1336 ft | 129 kts | 309° |
| 2026-04-22 17:56 | 50.09380 | 14.27473 | 1227 ft | 120 kts | 309° |
| 2026-04-22 17:57 | 50.09789 | 14.26636 | 1207 ft | 73 kts | 307° |
| 2026-04-22 17:57 | 50.10018 | 14.26158 | 1189 ft | 48 kts | 307° |
| 2026-04-22 17:57 | 50.10183 | 14.25814 | 1184 ft | 29 kts | 306° |
| 2026-04-22 17:57 | 50.10339 | 14.25665 | 1184 ft | 26 kts | 347° |
| 2026-04-22 17:58 | 50.10441 | 14.25664 | 1184 ft | 0 kts | 4° |
| 2026-04-22 18:01 | 50.10444 | 14.25665 | 1184 ft | 3 kts | 4° |
| 2026-04-22 18:02 | 50.10475 | 14.25683 | 1184 ft | 6 kts | 43° |
| 2026-04-22 18:02 | 50.10487 | 14.25736 | 1184 ft | 5 kts | 78° |
| 2026-04-22 18:02 | 50.10492 | 14.25777 | 1184 ft | 3 kts | 79° |
| 2026-04-22 18:02 | 50.10493 | 14.25787 | 1184 ft | 0 kts | 78° |
| 2026-04-22 18:03 | 50.10499 | 14.25834 | 1185 ft | 8 kts | 78° |
| 2026-04-22 18:03 | 50.10513 | 14.25938 | 1187 ft | 9 kts | 79° |
| 2026-04-22 18:04 | 50.10525 | 14.26036 | 1189 ft | 11 kts | 78° |
| 2026-04-22 18:04 | 50.10540 | 14.26147 | 1188 ft | 10 kts | 78° |
| 2026-04-22 18:04 | 50.10528 | 14.26254 | 1187 ft | 10 kts | 117° |
| 2026-04-22 18:04 | 50.10517 | 14.26320 | 1187 ft | 5 kts | 65° |
| 2026-04-22 18:05 | 50.10554 | 14.26351 | 1186 ft | 5 kts | 22° |
| 2026-04-22 18:05 | 50.10567 | 14.26361 | 1186 ft | 0 kts | 34° |